< Typhoon 200807 2008 Season Typhoon 200809 >
Typhoon 200808 (FUNG-WONG)
General InformationTrack Information on Google MapsDetailed Wind InformationAccess Analytics MapList of All Images || NewsDisaster Info.WeblogTrackbackTyphoon FrontTyphoon ImaginationResourceGoogle EarthGE AnimationAtom FeedGeoJSON
Detalied Best Track (Time Zone = UTC)
Year Month Day Hour Lat. Long. Pressure (hPa) Wind (kt) Class Image Chart
2008 7 24 00 21.7 133.2 1002 0 2 Image Chart
2008 7 24 06 21.9 132.7 1000 0 2 Image Chart
2008 7 24 12 21.9 132.2 998 0 2 Image Chart
2008 7 24 18 21.9 131.6 996 0 2 Image Chart
2008 7 25 00 21.8 131.3 996 0 2 Image Chart
2008 7 25 06 21.9 130.7 994 35 3 Image Chart
2008 7 25 12 21.9 129.7 990 45 3 Image Chart
2008 7 25 18 21.7 128.9 990 45 3 Image Chart
2008 7 26 00 21.5 127.8 985 50 4 Image Chart
2008 7 26 06 21.3 127.0 980 55 4 Image Chart
2008 7 26 12 21.3 126.1 975 60 4 Image Chart
2008 7 26 18 21.2 125.6 975 60 4 Image Chart
2008 7 27 00 21.7 124.9 970 65 5 Image Chart
2008 7 27 03 22.0 124.4 970 65 5 Image Chart
2008 7 27 06 22.1 124.0 970 65 5 Image Chart
2008 7 27 09 22.4 123.6 965 70 5 Image Chart
2008 7 27 12 22.7 123.1 960 75 5 Image Chart
2008 7 27 15 22.8 122.7 960 75 5 Image Chart
2008 7 27 18 23.0 122.4 960 75 5 Image Chart
2008 7 27 21 23.3 121.9 960 75 5 Image Chart
2008 7 28 00 23.4 121.2 965 70 5 Image Chart
2008 7 28 03 24.1 121.0 970 65 5 Image Chart
2008 7 28 06 24.4 120.8 975 55 4 Image Chart
2008 7 28 12 25.2 119.8 975 55 4 Image Chart
2008 7 28 18 26.0 119.1 985 50 4 Image Chart
2008 7 29 00 26.3 118.2 990 45 3 Image Chart
2008 7 29 06 27.1 117.5 990 45 3 Image Chart
2008 7 29 12 28.2 117.2 992 0 2 Image Chart
2008 7 29 18 28.6 116.7 994 0 2 Image Chart
2008 7 30 00 29.5 116.2 996 0 2 Image Chart
2008 7 30 06 30.4 115.9 996 0 2 Image Chart
2008 7 30 12 31.4 116.0 998 0 2 Image Chart
2008 7 30 18 32.0 116.1 1000 0 2 Image Chart
2008 7 31 00 32.7 116.2 1000 0 2 Image Chart
2008 7 31 06 33.3 116.2 1002 0 2 Image Chart
2008 7 31 12 33.9 116.3 1002 0 2 Image Chart
2008 7 31 18 34.7 116.4 1002 0 2 Image Chart
Japan Meteorological Agency Best Track Data | Correction Date : 2008-08-27
< Typhoon 200807 2008 Season Typhoon 200809 >

Help